sensor_id;sensor_type;location;lat;lon;timestamp;temperature;humidity
21104;DHT22;10710;53.398;-1.514;2023-07-16T00:01:07;15.20;99.90
21104;DHT22;10710;53.398;-1.514;2023-07-16T00:03:52;15.20;99.90
21104;DHT22;10710;53.398;-1.514;2023-07-16T00:06:36;15.20;99.90
21104;DHT22;10710;53.398;-1.514;2023-07-16T00:09:21;15.20;99.90
21104;DHT22;10710;53.398;-1.514;2023-07-16T00:12:05;15.10;99.90
21104;DHT22;10710;53.398;-1.514;2023-07-16T00:14:49;15.20;99.90
21104;DHT22;10710;53.398;-1.514;2023-07-16T00:17:34;15.10;99.90
21104;DHT22;10710;53.398;-1.514;2023-07-16T00:20:19;15.20;99.90
21104;DHT22;10710;53.398;-1.514;2023-07-16T00:23:03;15.20;99.90
21104;DHT22;10710;53.398;-1.514;2023-07-16T00:25:47;15.20;99.90
21104;DHT22;10710;53.398;-1.514;2023-07-16T00:28:31;15.30;99.90
21104;DHT22;10710;53.398;-1.514;2023-07-16T00:31:16;15.20;99.90
21104;DHT22;10710;53.398;-1.514;2023-07-16T00:34:00;15.20;99.90
21104;DHT22;10710;53.398;-1.514;2023-07-16T00:36:44;15.30;99.90
21104;DHT22;10710;53.398;-1.514;2023-07-16T00:39:29;15.30;99.90
21104;DHT22;10710;53.398;-1.514;2023-07-16T00:42:13;15.30;99.90
21104;DHT22;10710;53.398;-1.514;2023-07-16T00:44:57;15.30;99.90
21104;DHT22;10710;53.398;-1.514;2023-07-16T00:47:42;15.30;99.90
21104;DHT22;10710;53.398;-1.514;2023-07-16T00:50:27;15.40;99.90
21104;DHT22;10710;53.398;-1.514;2023-07-16T00:53:13;15.30;99.90
21104;DHT22;10710;53.398;-1.514;2023-07-16T00:55:57;15.30;99.90
21104;DHT22;10710;53.398;-1.514;2023-07-16T00:58:42;15.30;99.90
21104;DHT22;10710;53.398;-1.514;2023-07-16T01:01:26;15.30;99.90
21104;DHT22;10710;53.398;-1.514;2023-07-16T01:04:10;15.30;99.90
21104;DHT22;10710;53.398;-1.514;2023-07-16T01:06:57;15.30;99.90
21104;DHT22;10710;53.398;-1.514;2023-07-16T01:09:42;15.20;99.90
21104;DHT22;10710;53.398;-1.514;2023-07-16T01:12:28;15.20;99.90
21104;DHT22;10710;53.398;-1.514;2023-07-16T01:15:13;15.10;99.90
21104;DHT22;10710;53.398;-1.514;2023-07-16T01:17:58;15.10;99.90
21104;DHT22;10710;53.398;-1.514;2023-07-16T01:20:42;15.20;99.90
21104;DHT22;10710;53.398;-1.514;2023-07-16T01:23:38;15.20;99.90
21104;DHT22;10710;53.398;-1.514;2023-07-16T01:26:48;15.20;99.90
21104;DHT22;10710;53.398;-1.514;2023-07-16T01:29:36;15.10;99.90
21104;DHT22;10710;53.398;-1.514;2023-07-16T01:32:23;15.10;99.90
21104;DHT22;10710;53.398;-1.514;2023-07-16T01:35:09;15.10;99.90
21104;DHT22;10710;53.398;-1.514;2023-07-16T01:37:54;15.10;99.90
21104;DHT22;10710;53.398;-1.514;2023-07-16T01:40:38;15.10;99.90
21104;DHT22;10710;53.398;-1.514;2023-07-16T01:43:22;15.10;99.90
21104;DHT22;10710;53.398;-1.514;2023-07-16T01:46:07;15.10;99.90
21104;DHT22;10710;53.398;-1.514;2023-07-16T01:48:51;15.10;99.90
21104;DHT22;10710;53.398;-1.514;2023-07-16T01:51:35;15.10;99.90
21104;DHT22;10710;53.398;-1.514;2023-07-16T01:54:19;15.10;99.90
21104;DHT22;10710;53.398;-1.514;2023-07-16T01:57:04;15.00;99.90
21104;DHT22;10710;53.398;-1.514;2023-07-16T01:59:48;15.00;99.90
21104;DHT22;10710;53.398;-1.514;2023-07-16T02:02:32;15.00;99.90
21104;DHT22;10710;53.398;-1.514;2023-07-16T02:05:16;15.00;99.90
21104;DHT22;10710;53.398;-1.514;2023-07-16T02:08:00;15.00;99.90
21104;DHT22;10710;53.398;-1.514;2023-07-16T02:10:46;15.10;99.90
21104;DHT22;10710;53.398;-1.514;2023-07-16T02:13:31;15.10;99.90
21104;DHT22;10710;53.398;-1.514;2023-07-16T02:16:15;15.10;99.90
21104;DHT22;10710;53.398;-1.514;2023-07-16T02:18:59;15.00;99.90
21104;DHT22;10710;53.398;-1.514;2023-07-16T02:21:43;15.00;99.90
21104;DHT22;10710;53.398;-1.514;2023-07-16T02:24:27;15.00;99.90
21104;DHT22;10710;53.398;-1.514;2023-07-16T02:27:12;14.90;99.90
21104;DHT22;10710;53.398;-1.514;2023-07-16T02:29:56;14.90;99.90
21104;DHT22;10710;53.398;-1.514;2023-07-16T02:32:40;14.90;99.90
21104;DHT22;10710;53.398;-1.514;2023-07-16T02:35:25;15.00;99.90
21104;DHT22;10710;53.398;-1.514;2023-07-16T02:38:09;14.90;99.90
21104;DHT22;10710;53.398;-1.514;2023-07-16T02:40:53;15.00;99.90
21104;DHT22;10710;53.398;-1.514;2023-07-16T02:43:37;14.90;99.90
21104;DHT22;10710;53.398;-1.514;2023-07-16T02:46:21;15.00;99.90
21104;DHT22;10710;53.398;-1.514;2023-07-16T02:49:05;14.90;99.90
21104;DHT22;10710;53.398;-1.514;2023-07-16T02:51:50;14.90;99.90
21104;DHT22;10710;53.398;-1.514;2023-07-16T02:54:37;15.00;99.90
21104;DHT22;10710;53.398;-1.514;2023-07-16T02:57:21;14.90;99.90
21104;DHT22;10710;53.398;-1.514;2023-07-16T03:00:07;14.90;99.90
21104;DHT22;10710;53.398;-1.514;2023-07-16T03:02:52;14.90;99.90
21104;DHT22;10710;53.398;-1.514;2023-07-16T03:05:36;15.00;99.90
21104;DHT22;10710;53.398;-1.514;2023-07-16T03:08:20;15.00;99.90
21104;DHT22;10710;53.398;-1.514;2023-07-16T03:11:04;15.00;99.90
21104;DHT22;10710;53.398;-1.514;2023-07-16T03:13:49;15.00;99.90
21104;DHT22;10710;53.398;-1.514;2023-07-16T03:16:33;14.90;99.90
21104;DHT22;10710;53.398;-1.514;2023-07-16T03:19:17;14.90;99.90
21104;DHT22;10710;53.398;-1.514;2023-07-16T03:22:02;14.90;99.90
21104;DHT22;10710;53.398;-1.514;2023-07-16T03:24:47;14.90;99.90
21104;DHT22;10710;53.398;-1.514;2023-07-16T03:27:31;14.90;99.90
21104;DHT22;10710;53.398;-1.514;2023-07-16T03:30:15;14.80;99.90
21104;DHT22;10710;53.398;-1.514;2023-07-16T03:32:59;14.80;99.90
21104;DHT22;10710;53.398;-1.514;2023-07-16T03:35:44;14.90;99.90
21104;DHT22;10710;53.398;-1.514;2023-07-16T03:38:29;14.90;99.90
21104;DHT22;10710;53.398;-1.514;2023-07-16T03:41:13;14.90;99.90
21104;DHT22;10710;53.398;-1.514;2023-07-16T03:43:57;14.80;99.90
21104;DHT22;10710;53.398;-1.514;2023-07-16T03:46:41;14.90;99.90
21104;DHT22;10710;53.398;-1.514;2023-07-16T03:49:25;14.90;99.90
21104;DHT22;10710;53.398;-1.514;2023-07-16T03:52:09;14.90;99.90
21104;DHT22;10710;53.398;-1.514;2023-07-16T03:54:53;14.90;99.90
21104;DHT22;10710;53.398;-1.514;2023-07-16T03:57:38;14.90;99.90
21104;DHT22;10710;53.398;-1.514;2023-07-16T04:00:22;15.00;99.90
21104;DHT22;10710;53.398;-1.514;2023-07-16T04:03:06;15.00;99.90
21104;DHT22;10710;53.398;-1.514;2023-07-16T04:05:50;15.00;99.90
21104;DHT22;10710;53.398;-1.514;2023-07-16T04:08:34;14.90;99.90
21104;DHT22;10710;53.398;-1.514;2023-07-16T04:11:19;14.90;99.90
21104;DHT22;10710;53.398;-1.514;2023-07-16T04:14:03;14.90;99.90
21104;DHT22;10710;53.398;-1.514;2023-07-16T04:16:47;15.00;99.90
21104;DHT22;10710;53.398;-1.514;2023-07-16T04:19:31;15.10;99.90
21104;DHT22;10710;53.398;-1.514;2023-07-16T04:22:16;15.10;99.90
21104;DHT22;10710;53.398;-1.514;2023-07-16T04:25:00;15.00;99.90
21104;DHT22;10710;53.398;-1.514;2023-07-16T04:27:45;15.00;99.90
21104;DHT22;10710;53.398;-1.514;2023-07-16T04:30:29;15.00;99.90
21104;DHT22;10710;53.398;-1.514;2023-07-16T04:33:14;15.00;99.90
21104;DHT22;10710;53.398;-1.514;2023-07-16T04:35:58;14.90;99.90
21104;DHT22;10710;53.398;-1.514;2023-07-16T04:38:42;14.90;99.90
21104;DHT22;10710;53.398;-1.514;2023-07-16T04:41:26;15.10;99.90
21104;DHT22;10710;53.398;-1.514;2023-07-16T04:44:11;15.00;99.90
21104;DHT22;10710;53.398;-1.514;2023-07-16T04:46:55;15.10;99.90
21104;DHT22;10710;53.398;-1.514;2023-07-16T04:49:39;15.10;99.90
21104;DHT22;10710;53.398;-1.514;2023-07-16T04:52:23;15.00;99.90
21104;DHT22;10710;53.398;-1.514;2023-07-16T04:55:08;15.00;99.90
21104;DHT22;10710;53.398;-1.514;2023-07-16T04:57:52;15.10;99.90
21104;DHT22;10710;53.398;-1.514;2023-07-16T05:00:38;15.20;99.90
21104;DHT22;10710;53.398;-1.514;2023-07-16T05:03:22;15.20;99.90
21104;DHT22;10710;53.398;-1.514;2023-07-16T05:06:06;15.10;99.90
21104;DHT22;10710;53.398;-1.514;2023-07-16T05:08:50;15.20;99.90
21104;DHT22;10710;53.398;-1.514;2023-07-16T05:11:34;15.20;99.90
21104;DHT22;10710;53.398;-1.514;2023-07-16T05:14:18;15.20;99.90
21104;DHT22;10710;53.398;-1.514;2023-07-16T05:17:02;15.20;99.90
21104;DHT22;10710;53.398;-1.514;2023-07-16T05:19:47;15.30;99.90
21104;DHT22;10710;53.398;-1.514;2023-07-16T05:22:32;15.20;99.90
21104;DHT22;10710;53.398;-1.514;2023-07-16T05:25:16;15.30;99.90
21104;DHT22;10710;53.398;-1.514;2023-07-16T05:28:00;15.30;99.90
21104;DHT22;10710;53.398;-1.514;2023-07-16T05:30:44;15.20;99.90
21104;DHT22;10710;53.398;-1.514;2023-07-16T05:33:29;15.20;99.90
21104;DHT22;10710;53.398;-1.514;2023-07-16T05:36:13;15.20;99.90
21104;DHT22;10710;53.398;-1.514;2023-07-16T05:38:57;15.30;99.90
21104;DHT22;10710;53.398;-1.514;2023-07-16T05:41:42;15.30;99.90
21104;DHT22;10710;53.398;-1.514;2023-07-16T05:44:26;15.30;99.90
21104;DHT22;10710;53.398;-1.514;2023-07-16T05:47:11;15.30;99.90
21104;DHT22;10710;53.398;-1.514;2023-07-16T05:49:55;15.20;99.90
21104;DHT22;10710;53.398;-1.514;2023-07-16T05:52:39;15.30;99.90
21104;DHT22;10710;53.398;-1.514;2023-07-16T05:55:24;15.20;99.90
21104;DHT22;10710;53.398;-1.514;2023-07-16T05:58:08;15.10;99.90
21104;DHT22;10710;53.398;-1.514;2023-07-16T06:00:52;15.10;99.90
21104;DHT22;10710;53.398;-1.514;2023-07-16T06:03:37;15.00;99.90
21104;DHT22;10710;53.398;-1.514;2023-07-16T06:06:21;15.00;99.90
21104;DHT22;10710;53.398;-1.514;2023-07-16T06:09:05;15.00;99.90
21104;DHT22;10710;53.398;-1.514;2023-07-16T06:11:49;14.90;99.90
21104;DHT22;10710;53.398;-1.514;2023-07-16T06:14:33;15.10;99.90
21104;DHT22;10710;53.398;-1.514;2023-07-16T06:17:17;15.10;99.90
21104;DHT22;10710;53.398;-1.514;2023-07-16T06:20:02;15.10;99.90
21104;DHT22;10710;53.398;-1.514;2023-07-16T06:22:47;15.10;99.90
21104;DHT22;10710;53.398;-1.514;2023-07-16T06:25:31;15.20;99.90
21104;DHT22;10710;53.398;-1.514;2023-07-16T06:28:16;15.30;99.90
21104;DHT22;10710;53.398;-1.514;2023-07-16T06:31:00;15.50;99.90
21104;DHT22;10710;53.398;-1.514;2023-07-16T06:33:45;15.70;99.90
21104;DHT22;10710;53.398;-1.514;2023-07-16T06:36:32;15.70;99.90
21104;DHT22;10710;53.398;-1.514;2023-07-16T06:39:16;15.90;99.90
21104;DHT22;10710;53.398;-1.514;2023-07-16T06:42:01;16.00;99.90
21104;DHT22;10710;53.398;-1.514;2023-07-16T06:44:45;16.10;99.90
21104;DHT22;10710;53.398;-1.514;2023-07-16T06:47:29;16.00;99.90
21104;DHT22;10710;53.398;-1.514;2023-07-16T06:50:13;15.90;99.90
21104;DHT22;10710;53.398;-1.514;2023-07-16T06:52:58;15.90;99.90
21104;DHT22;10710;53.398;-1.514;2023-07-16T06:55:42;16.10;99.90
21104;DHT22;10710;53.398;-1.514;2023-07-16T06:58:33;16.00;99.90
21104;DHT22;10710;53.398;-1.514;2023-07-16T07:01:18;16.00;99.90
21104;DHT22;10710;53.398;-1.514;2023-07-16T07:04:02;16.10;99.90
21104;DHT22;10710;53.398;-1.514;2023-07-16T07:06:46;16.10;99.90
21104;DHT22;10710;53.398;-1.514;2023-07-16T07:09:30;16.10;99.90
21104;DHT22;10710;53.398;-1.514;2023-07-16T07:12:14;16.10;99.90
21104;DHT22;10710;53.398;-1.514;2023-07-16T07:14:58;16.40;99.90
21104;DHT22;10710;53.398;-1.514;2023-07-16T07:17:42;16.60;99.90
21104;DHT22;10710;53.398;-1.514;2023-07-16T07:20:26;16.70;99.90
21104;DHT22;10710;53.398;-1.514;2023-07-16T07:23:10;16.70;99.90
21104;DHT22;10710;53.398;-1.514;2023-07-16T07:25:55;16.80;99.90
21104;DHT22;10710;53.398;-1.514;2023-07-16T07:28:39;16.80;99.90
21104;DHT22;10710;53.398;-1.514;2023-07-16T07:31:23;16.70;99.90
21104;DHT22;10710;53.398;-1.514;2023-07-16T07:34:07;16.70;99.90
21104;DHT22;10710;53.398;-1.514;2023-07-16T07:36:51;16.80;99.90
21104;DHT22;10710;53.398;-1.514;2023-07-16T07:39:35;16.80;99.90
21104;DHT22;10710;53.398;-1.514;2023-07-16T07:42:20;16.50;99.90
21104;DHT22;10710;53.398;-1.514;2023-07-16T07:45:05;16.60;99.90
21104;DHT22;10710;53.398;-1.514;2023-07-16T07:47:50;16.60;99.90
21104;DHT22;10710;53.398;-1.514;2023-07-16T07:50:34;16.60;99.90
21104;DHT22;10710;53.398;-1.514;2023-07-16T07:53:19;16.90;99.90
21104;DHT22;10710;53.398;-1.514;2023-07-16T07:56:03;17.10;99.90
21104;DHT22;10710;53.398;-1.514;2023-07-16T07:58:48;17.10;99.90
21104;DHT22;10710;53.398;-1.514;2023-07-16T08:01:32;17.40;99.90
21104;DHT22;10710;53.398;-1.514;2023-07-16T08:04:16;17.10;99.90
21104;DHT22;10710;53.398;-1.514;2023-07-16T08:07:00;17.30;99.90
21104;DHT22;10710;53.398;-1.514;2023-07-16T08:09:45;17.20;99.90
21104;DHT22;10710;53.398;-1.514;2023-07-16T08:12:30;17.30;99.90
21104;DHT22;10710;53.398;-1.514;2023-07-16T08:15:15;17.30;99.90
21104;DHT22;10710;53.398;-1.514;2023-07-16T08:17:59;17.50;99.90
21104;DHT22;10710;53.398;-1.514;2023-07-16T08:20:44;17.50;99.90
21104;DHT22;10710;53.398;-1.514;2023-07-16T08:23:28;17.50;99.90
21104;DHT22;10710;53.398;-1.514;2023-07-16T08:26:12;17.60;99.90
21104;DHT22;10710;53.398;-1.514;2023-07-16T08:28:56;17.70;99.90
21104;DHT22;10710;53.398;-1.514;2023-07-16T08:31:40;17.60;99.90
21104;DHT22;10710;53.398;-1.514;2023-07-16T08:34:25;17.40;99.90
21104;DHT22;10710;53.398;-1.514;2023-07-16T08:37:09;17.40;99.90
21104;DHT22;10710;53.398;-1.514;2023-07-16T08:39:53;17.40;99.90
21104;DHT22;10710;53.398;-1.514;2023-07-16T08:42:41;17.30;99.90
21104;DHT22;10710;53.398;-1.514;2023-07-16T08:45:28;17.40;99.90
21104;DHT22;10710;53.398;-1.514;2023-07-16T08:48:13;17.50;99.90
21104;DHT22;10710;53.398;-1.514;2023-07-16T08:50:59;17.50;99.90
21104;DHT22;10710;53.398;-1.514;2023-07-16T08:53:46;17.60;99.90
21104;DHT22;10710;53.398;-1.514;2023-07-16T08:56:31;17.90;99.90
21104;DHT22;10710;53.398;-1.514;2023-07-16T08:59:15;18.00;99.90
21104;DHT22;10710;53.398;-1.514;2023-07-16T09:01:59;18.20;99.90
21104;DHT22;10710;53.398;-1.514;2023-07-16T09:04:47;18.30;99.90
21104;DHT22;10710;53.398;-1.514;2023-07-16T09:07:32;18.20;99.90
21104;DHT22;10710;53.398;-1.514;2023-07-16T09:10:16;18.40;99.90
21104;DHT22;10710;53.398;-1.514;2023-07-16T09:13:02;18.60;99.90
21104;DHT22;10710;53.398;-1.514;2023-07-16T09:15:54;18.40;99.90
21104;DHT22;10710;53.398;-1.514;2023-07-16T09:18:40;18.70;99.90
21104;DHT22;10710;53.398;-1.514;2023-07-16T09:21:25;18.60;99.90
21104;DHT22;10710;53.398;-1.514;2023-07-16T09:24:11;18.40;99.90
21104;DHT22;10710;53.398;-1.514;2023-07-16T09:26:55;18.40;99.90
21104;DHT22;10710;53.398;-1.514;2023-07-16T09:29:41;18.40;99.90
21104;DHT22;10710;53.398;-1.514;2023-07-16T09:32:35;18.40;99.90
21104;DHT22;10710;53.398;-1.514;2023-07-16T09:35:20;18.60;99.90
21104;DHT22;10710;53.398;-1.514;2023-07-16T09:38:04;18.50;99.90
21104;DHT22;10710;53.398;-1.514;2023-07-16T09:40:49;18.60;99.90
21104;DHT22;10710;53.398;-1.514;2023-07-16T09:43:33;18.70;99.90
21104;DHT22;10710;53.398;-1.514;2023-07-16T09:46:19;18.80;99.90
21104;DHT22;10710;53.398;-1.514;2023-07-16T09:49:03;18.80;99.90
21104;DHT22;10710;53.398;-1.514;2023-07-16T09:51:48;18.70;99.90
21104;DHT22;10710;53.398;-1.514;2023-07-16T09:54:38;18.70;99.90
21104;DHT22;10710;53.398;-1.514;2023-07-16T09:57:25;18.50;99.90
21104;DHT22;10710;53.398;-1.514;2023-07-16T10:00:11;18.50;99.90
21104;DHT22;10710;53.398;-1.514;2023-07-16T10:02:57;18.50;99.90
21104;DHT22;10710;53.398;-1.514;2023-07-16T10:05:41;18.60;99.90
21104;DHT22;10710;53.398;-1.514;2023-07-16T10:08:25;18.80;99.90
21104;DHT22;10710;53.398;-1.514;2023-07-16T10:11:17;19.10;99.90
21104;DHT22;10710;53.398;-1.514;2023-07-16T10:14:01;19.10;99.90
21104;DHT22;10710;53.398;-1.514;2023-07-16T10:16:47;18.90;99.90
21104;DHT22;10710;53.398;-1.514;2023-07-16T10:19:45;18.70;99.90
21104;DHT22;10710;53.398;-1.514;2023-07-16T10:22:41;18.50;99.90
21104;DHT22;10710;53.398;-1.514;2023-07-16T10:25:27;18.40;99.90
21104;DHT22;10710;53.398;-1.514;2023-07-16T10:28:11;18.40;99.90
21104;DHT22;10710;53.398;-1.514;2023-07-16T10:30:55;18.30;99.90
21104;DHT22;10710;53.398;-1.514;2023-07-16T10:33:39;18.40;99.90
21104;DHT22;10710;53.398;-1.514;2023-07-16T10:36:24;18.30;99.90
21104;DHT22;10710;53.398;-1.514;2023-07-16T10:39:08;18.50;99.90
21104;DHT22;10710;53.398;-1.514;2023-07-16T10:41:53;18.80;99.90
21104;DHT22;10710;53.398;-1.514;2023-07-16T10:44:39;18.90;99.90
21104;DHT22;10710;53.398;-1.514;2023-07-16T10:47:32;18.80;99.90
21104;DHT22;10710;53.398;-1.514;2023-07-16T10:50:16;19.00;99.90
21104;DHT22;10710;53.398;-1.514;2023-07-16T10:53:02;19.30;99.90
21104;DHT22;10710;53.398;-1.514;2023-07-16T10:55:47;19.50;99.90
21104;DHT22;10710;53.398;-1.514;2023-07-16T10:58:31;19.30;99.90
21104;DHT22;10710;53.398;-1.514;2023-07-16T11:01:17;19.40;99.90
21104;DHT22;10710;53.398;-1.514;2023-07-16T11:04:07;19.60;99.90
21104;DHT22;10710;53.398;-1.514;2023-07-16T11:06:51;19.50;99.90
21104;DHT22;10710;53.398;-1.514;2023-07-16T11:09:47;19.20;99.90
21104;DHT22;10710;53.398;-1.514;2023-07-16T11:12:32;19.20;99.90
21104;DHT22;10710;53.398;-1.514;2023-07-16T11:15:16;19.20;99.90
21104;DHT22;10710;53.398;-1.514;2023-07-16T11:18:01;19.30;99.90
21104;DHT22;10710;53.398;-1.514;2023-07-16T11:20:50;19.50;99.90
21104;DHT22;10710;53.398;-1.514;2023-07-16T11:23:35;19.50;99.90
21104;DHT22;10710;53.398;-1.514;2023-07-16T11:26:20;19.30;99.90
21104;DHT22;10710;53.398;-1.514;2023-07-16T11:29:14;19.70;99.90
21104;DHT22;10710;53.398;-1.514;2023-07-16T11:31:59;19.90;99.90
21104;DHT22;10710;53.398;-1.514;2023-07-16T11:34:57;20.00;99.90
21104;DHT22;10710;53.398;-1.514;2023-07-16T11:37:41;20.10;99.90
21104;DHT22;10710;53.398;-1.514;2023-07-16T11:40:26;20.30;99.90
21104;DHT22;10710;53.398;-1.514;2023-07-16T11:43:11;20.40;99.90
21104;DHT22;10710;53.398;-1.514;2023-07-16T11:45:55;20.40;99.90
21104;DHT22;10710;53.398;-1.514;2023-07-16T11:48:39;20.20;99.90
21104;DHT22;10710;53.398;-1.514;2023-07-16T11:51:23;18.90;99.90
21104;DHT22;10710;53.398;-1.514;2023-07-16T11:54:07;18.20;99.90
21104;DHT22;10710;53.398;-1.514;2023-07-16T11:56:52;17.80;99.90
21104;DHT22;10710;53.398;-1.514;2023-07-16T11:59:36;17.40;99.90
21104;DHT22;10710;53.398;-1.514;2023-07-16T12:02:20;17.30;99.90
21104;DHT22;10710;53.398;-1.514;2023-07-16T12:05:05;17.40;99.90
21104;DHT22;10710;53.398;-1.514;2023-07-16T12:07:51;17.60;99.90
21104;DHT22;10710;53.398;-1.514;2023-07-16T12:10:35;17.70;99.90
21104;DHT22;10710;53.398;-1.514;2023-07-16T12:13:20;17.80;99.90
21104;DHT22;10710;53.398;-1.514;2023-07-16T12:16:04;17.90;99.90
21104;DHT22;10710;53.398;-1.514;2023-07-16T12:18:48;17.90;99.90
21104;DHT22;10710;53.398;-1.514;2023-07-16T12:21:32;18.20;99.90
21104;DHT22;10710;53.398;-1.514;2023-07-16T12:24:17;18.40;99.90
21104;DHT22;10710;53.398;-1.514;2023-07-16T12:27:01;18.60;99.90
21104;DHT22;10710;53.398;-1.514;2023-07-16T12:29:46;18.80;99.90
21104;DHT22;10710;53.398;-1.514;2023-07-16T12:32:30;19.10;99.90
21104;DHT22;10710;53.398;-1.514;2023-07-16T12:35:15;19.40;99.90
21104;DHT22;10710;53.398;-1.514;2023-07-16T12:37:59;19.60;99.90
21104;DHT22;10710;53.398;-1.514;2023-07-16T12:40:43;19.60;99.90
21104;DHT22;10710;53.398;-1.514;2023-07-16T12:43:27;19.20;99.90
21104;DHT22;10710;53.398;-1.514;2023-07-16T12:46:12;18.90;99.90
21104;DHT22;10710;53.398;-1.514;2023-07-16T12:48:56;18.00;99.90
21104;DHT22;10710;53.398;-1.514;2023-07-16T12:51:40;17.60;99.90
21104;DHT22;10710;53.398;-1.514;2023-07-16T12:54:24;17.30;99.90
21104;DHT22;10710;53.398;-1.514;2023-07-16T12:57:08;17.50;99.90
21104;DHT22;10710;53.398;-1.514;2023-07-16T12:59:52;17.80;99.90
21104;DHT22;10710;53.398;-1.514;2023-07-16T13:02:38;17.60;99.90
21104;DHT22;10710;53.398;-1.514;2023-07-16T13:05:22;17.80;99.90
21104;DHT22;10710;53.398;-1.514;2023-07-16T13:08:06;18.20;99.90
21104;DHT22;10710;53.398;-1.514;2023-07-16T13:10:51;18.50;99.90
21104;DHT22;10710;53.398;-1.514;2023-07-16T13:13:35;18.50;99.90
21104;DHT22;10710;53.398;-1.514;2023-07-16T13:16:20;18.20;99.90
21104;DHT22;10710;53.398;-1.514;2023-07-16T13:19:04;18.20;99.90
21104;DHT22;10710;53.398;-1.514;2023-07-16T13:21:48;18.40;99.90
21104;DHT22;10710;53.398;-1.514;2023-07-16T13:24:32;19.00;99.90
21104;DHT22;10710;53.398;-1.514;2023-07-16T13:27:21;19.80;99.90
21104;DHT22;10710;53.398;-1.514;2023-07-16T13:30:06;20.20;99.90
21104;DHT22;10710;53.398;-1.514;2023-07-16T13:32:51;20.30;99.90
21104;DHT22;10710;53.398;-1.514;2023-07-16T13:35:39;20.70;99.90
21104;DHT22;10710;53.398;-1.514;2023-07-16T13:38:24;21.40;99.90
21104;DHT22;10710;53.398;-1.514;2023-07-16T13:41:08;21.20;99.90
21104;DHT22;10710;53.398;-1.514;2023-07-16T13:43:53;21.50;99.90
21104;DHT22;10710;53.398;-1.514;2023-07-16T13:46:38;22.20;99.90
21104;DHT22;10710;53.398;-1.514;2023-07-16T13:49:25;22.60;99.90
21104;DHT22;10710;53.398;-1.514;2023-07-16T13:52:09;22.80;99.90
21104;DHT22;10710;53.398;-1.514;2023-07-16T13:54:54;22.40;99.90
21104;DHT22;10710;53.398;-1.514;2023-07-16T13:57:38;21.80;99.90
21104;DHT22;10710;53.398;-1.514;2023-07-16T14:00:23;21.60;99.90
21104;DHT22;10710;53.398;-1.514;2023-07-16T14:03:07;21.70;99.90
21104;DHT22;10710;53.398;-1.514;2023-07-16T14:05:52;21.80;99.90
21104;DHT22;10710;53.398;-1.514;2023-07-16T14:08:36;21.80;99.90
21104;DHT22;10710;53.398;-1.514;2023-07-16T14:11:21;21.90;99.90
21104;DHT22;10710;53.398;-1.514;2023-07-16T14:14:05;22.00;99.90
21104;DHT22;10710;53.398;-1.514;2023-07-16T14:16:50;22.10;99.90
21104;DHT22;10710;53.398;-1.514;2023-07-16T14:19:35;22.20;99.90
21104;DHT22;10710;53.398;-1.514;2023-07-16T14:22:19;21.80;99.90
21104;DHT22;10710;53.398;-1.514;2023-07-16T14:25:04;21.40;99.90
21104;DHT22;10710;53.398;-1.514;2023-07-16T14:27:48;20.60;99.90
21104;DHT22;10710;53.398;-1.514;2023-07-16T14:30:32;19.90;99.90
21104;DHT22;10710;53.398;-1.514;2023-07-16T14:33:16;19.10;99.90
21104;DHT22;10710;53.398;-1.514;2023-07-16T14:36:00;18.60;99.90
21104;DHT22;10710;53.398;-1.514;2023-07-16T14:38:44;18.50;99.90
21104;DHT22;10710;53.398;-1.514;2023-07-16T14:41:28;18.40;99.90
21104;DHT22;10710;53.398;-1.514;2023-07-16T14:44:13;18.00;99.90
21104;DHT22;10710;53.398;-1.514;2023-07-16T14:46:57;18.10;99.90
21104;DHT22;10710;53.398;-1.514;2023-07-16T14:49:42;18.20;99.90
21104;DHT22;10710;53.398;-1.514;2023-07-16T14:52:26;18.20;99.90
21104;DHT22;10710;53.398;-1.514;2023-07-16T14:55:10;18.30;99.90
21104;DHT22;10710;53.398;-1.514;2023-07-16T14:57:55;18.30;99.90
21104;DHT22;10710;53.398;-1.514;2023-07-16T15:00:39;18.60;99.90
21104;DHT22;10710;53.398;-1.514;2023-07-16T15:03:23;18.60;99.90
21104;DHT22;10710;53.398;-1.514;2023-07-16T15:06:08;18.40;99.90
21104;DHT22;10710;53.398;-1.514;2023-07-16T15:08:53;18.40;99.90
21104;DHT22;10710;53.398;-1.514;2023-07-16T15:11:37;18.50;99.90
21104;DHT22;10710;53.398;-1.514;2023-07-16T15:14:21;18.70;99.90
21104;DHT22;10710;53.398;-1.514;2023-07-16T15:17:05;19.00;99.90
21104;DHT22;10710;53.398;-1.514;2023-07-16T15:19:51;19.50;99.90
21104;DHT22;10710;53.398;-1.514;2023-07-16T15:22:35;20.10;99.90
21104;DHT22;10710;53.398;-1.514;2023-07-16T15:25:20;20.90;99.90
21104;DHT22;10710;53.398;-1.514;2023-07-16T15:28:04;21.90;99.90
21104;DHT22;10710;53.398;-1.514;2023-07-16T15:30:48;23.10;99.90
21104;DHT22;10710;53.398;-1.514;2023-07-16T15:33:32;24.10;99.90
21104;DHT22;10710;53.398;-1.514;2023-07-16T15:36:18;24.40;99.90
21104;DHT22;10710;53.398;-1.514;2023-07-16T15:39:02;24.00;99.90
21104;DHT22;10710;53.398;-1.514;2023-07-16T15:41:46;24.00;99.90
21104;DHT22;10710;53.398;-1.514;2023-07-16T15:44:31;24.30;99.90
21104;DHT22;10710;53.398;-1.514;2023-07-16T15:47:15;24.00;99.90
21104;DHT22;10710;53.398;-1.514;2023-07-16T15:50:00;23.90;99.90
21104;DHT22;10710;53.398;-1.514;2023-07-16T15:52:44;23.70;99.90
21104;DHT22;10710;53.398;-1.514;2023-07-16T15:55:28;23.10;99.90
21104;DHT22;10710;53.398;-1.514;2023-07-16T15:58:12;22.70;99.90
21104;DHT22;10710;53.398;-1.514;2023-07-16T16:00:57;22.40;99.90
21104;DHT22;10710;53.398;-1.514;2023-07-16T16:03:41;22.00;99.90
21104;DHT22;10710;53.398;-1.514;2023-07-16T16:06:25;21.60;99.90
21104;DHT22;10710;53.398;-1.514;2023-07-16T16:09:09;21.20;99.90
21104;DHT22;10710;53.398;-1.514;2023-07-16T16:11:54;20.50;99.90
21104;DHT22;10710;53.398;-1.514;2023-07-16T16:14:38;20.20;99.90
21104;DHT22;10710;53.398;-1.514;2023-07-16T16:17:23;19.80;99.90
21104;DHT22;10710;53.398;-1.514;2023-07-16T16:20:08;19.50;99.90
21104;DHT22;10710;53.398;-1.514;2023-07-16T16:22:53;19.00;99.90
21104;DHT22;10710;53.398;-1.514;2023-07-16T16:25:38;18.30;99.90
21104;DHT22;10710;53.398;-1.514;2023-07-16T16:28:23;18.10;99.90
21104;DHT22;10710;53.398;-1.514;2023-07-16T16:31:07;18.20;99.90
21104;DHT22;10710;53.398;-1.514;2023-07-16T16:33:51;17.90;99.90
21104;DHT22;10710;53.398;-1.514;2023-07-16T16:36:35;17.80;99.90
21104;DHT22;10710;53.398;-1.514;2023-07-16T16:39:19;18.00;99.90
21104;DHT22;10710;53.398;-1.514;2023-07-16T16:42:05;17.80;99.90
21104;DHT22;10710;53.398;-1.514;2023-07-16T16:44:49;17.60;99.90
21104;DHT22;10710;53.398;-1.514;2023-07-16T16:47:34;17.60;99.90
21104;DHT22;10710;53.398;-1.514;2023-07-16T16:50:19;17.60;99.90
21104;DHT22;10710;53.398;-1.514;2023-07-16T16:53:04;17.70;99.90
21104;DHT22;10710;53.398;-1.514;2023-07-16T16:55:48;17.50;99.90
21104;DHT22;10710;53.398;-1.514;2023-07-16T16:58:33;17.70;99.90
21104;DHT22;10710;53.398;-1.514;2023-07-16T17:01:17;18.00;99.90
21104;DHT22;10710;53.398;-1.514;2023-07-16T17:04:02;18.20;99.90